sensor_id;sensor_type;location;lat;lon;timestamp;temperature;humidity
30371;DHT22;17164;48.590;11.410;2023-05-14T00:02:20;10.30;99.90
30371;DHT22;17164;48.590;11.410;2023-05-14T00:04:46;10.40;99.90
30371;DHT22;17164;48.590;11.410;2023-05-14T00:07:12;10.40;99.90
30371;DHT22;17164;48.590;11.410;2023-05-14T00:09:37;10.40;99.90
30371;DHT22;17164;48.590;11.410;2023-05-14T00:12:03;10.40;99.90
30371;DHT22;17164;48.590;11.410;2023-05-14T00:14:29;10.40;99.90
30371;DHT22;17164;48.590;11.410;2023-05-14T00:16:54;10.40;99.90
30371;DHT22;17164;48.590;11.410;2023-05-14T00:19:20;10.40;99.90
30371;DHT22;17164;48.590;11.410;2023-05-14T00:21:46;10.40;99.90
30371;DHT22;17164;48.590;11.410;2023-05-14T00:24:12;10.40;99.90
30371;DHT22;17164;48.590;11.410;2023-05-14T00:26:38;10.40;99.90
30371;DHT22;17164;48.590;11.410;2023-05-14T00:29:03;10.40;99.90
30371;DHT22;17164;48.590;11.410;2023-05-14T00:31:29;10.40;99.90
30371;DHT22;17164;48.590;11.410;2023-05-14T00:33:54;10.50;99.90
30371;DHT22;17164;48.590;11.410;2023-05-14T00:36:20;10.50;99.90
30371;DHT22;17164;48.590;11.410;2023-05-14T00:38:46;10.50;99.90
30371;DHT22;17164;48.590;11.410;2023-05-14T00:41:11;10.50;99.90
30371;DHT22;17164;48.590;11.410;2023-05-14T00:43:37;10.50;99.90
30371;DHT22;17164;48.590;11.410;2023-05-14T00:46:03;10.50;99.90
30371;DHT22;17164;48.590;11.410;2023-05-14T00:48:28;10.50;99.90
30371;DHT22;17164;48.590;11.410;2023-05-14T00:50:54;10.50;99.90
30371;DHT22;17164;48.590;11.410;2023-05-14T00:53:20;10.50;99.90
30371;DHT22;17164;48.590;11.410;2023-05-14T00:55:47;10.50;99.90
30371;DHT22;17164;48.590;11.410;2023-05-14T00:58:13;10.50;99.90
30371;DHT22;17164;48.590;11.410;2023-05-14T01:00:39;10.50;99.90
30371;DHT22;17164;48.590;11.410;2023-05-14T01:03:06;10.50;99.90
30371;DHT22;17164;48.590;11.410;2023-05-14T01:11:19;10.50;99.90
30371;DHT22;17164;48.590;11.410;2023-05-14T01:14:27;10.50;99.90
30371;DHT22;17164;48.590;11.410;2023-05-14T01:16:58;10.50;99.90
30371;DHT22;17164;48.590;11.410;2023-05-14T01:19:41;10.50;99.90
30371;DHT22;17164;48.590;11.410;2023-05-14T01:22:07;10.50;99.90
30371;DHT22;17164;48.590;11.410;2023-05-14T01:24:33;10.50;99.90
30371;DHT22;17164;48.590;11.410;2023-05-14T01:27:14;10.50;99.90
30371;DHT22;17164;48.590;11.410;2023-05-14T01:29:44;10.50;99.90
30371;DHT22;17164;48.590;11.410;2023-05-14T01:32:12;10.50;99.90
30371;DHT22;17164;48.590;11.410;2023-05-14T01:34:38;10.40;99.90
30371;DHT22;17164;48.590;11.410;2023-05-14T01:37:05;10.40;99.90
30371;DHT22;17164;48.590;11.410;2023-05-14T01:39:31;10.40;99.90
30371;DHT22;17164;48.590;11.410;2023-05-14T01:41:58;10.50;99.90
30371;DHT22;17164;48.590;11.410;2023-05-14T01:44:24;10.40;99.90
30371;DHT22;17164;48.590;11.410;2023-05-14T01:46:50;10.40;99.90
30371;DHT22;17164;48.590;11.410;2023-05-14T01:49:15;10.40;99.90
30371;DHT22;17164;48.590;11.410;2023-05-14T01:51:42;10.40;99.90
30371;DHT22;17164;48.590;11.410;2023-05-14T01:54:08;10.40;99.90
30371;DHT22;17164;48.590;11.410;2023-05-14T01:56:33;10.40;99.90
30371;DHT22;17164;48.590;11.410;2023-05-14T01:58:59;10.40;99.90
30371;DHT22;17164;48.590;11.410;2023-05-14T02:01:25;10.40;99.90
30371;DHT22;17164;48.590;11.410;2023-05-14T02:03:50;10.50;99.90
30371;DHT22;17164;48.590;11.410;2023-05-14T02:06:16;10.40;99.90
30371;DHT22;17164;48.590;11.410;2023-05-14T02:08:42;10.50;99.90
30371;DHT22;17164;48.590;11.410;2023-05-14T02:11:07;10.50;99.90
30371;DHT22;17164;48.590;11.410;2023-05-14T02:13:33;10.50;99.90
30371;DHT22;17164;48.590;11.410;2023-05-14T02:15:58;10.50;99.90
30371;DHT22;17164;48.590;11.410;2023-05-14T02:18:24;10.50;99.90
30371;DHT22;17164;48.590;11.410;2023-05-14T02:20:50;10.50;99.90
30371;DHT22;17164;48.590;11.410;2023-05-14T02:23:15;10.50;99.90
30371;DHT22;17164;48.590;11.410;2023-05-14T02:25:41;10.50;99.90
30371;DHT22;17164;48.590;11.410;2023-05-14T02:28:06;10.50;99.90
30371;DHT22;17164;48.590;11.410;2023-05-14T02:30:32;10.40;99.90
30371;DHT22;17164;48.590;11.410;2023-05-14T02:32:58;10.40;99.90
30371;DHT22;17164;48.590;11.410;2023-05-14T02:35:23;10.40;99.90
30371;DHT22;17164;48.590;11.410;2023-05-14T02:37:49;10.50;99.90
30371;DHT22;17164;48.590;11.410;2023-05-14T02:40:14;10.50;99.90
30371;DHT22;17164;48.590;11.410;2023-05-14T02:42:40;10.50;99.90
30371;DHT22;17164;48.590;11.410;2023-05-14T02:45:06;10.50;99.90
30371;DHT22;17164;48.590;11.410;2023-05-14T02:47:31;10.50;99.90
30371;DHT22;17164;48.590;11.410;2023-05-14T02:49:57;10.50;99.90
30371;DHT22;17164;48.590;11.410;2023-05-14T02:52:23;10.50;99.90
30371;DHT22;17164;48.590;11.410;2023-05-14T02:54:48;10.40;99.90
30371;DHT22;17164;48.590;11.410;2023-05-14T02:57:14;10.40;99.90
30371;DHT22;17164;48.590;11.410;2023-05-14T02:59:39;10.40;99.90
30371;DHT22;17164;48.590;11.410;2023-05-14T03:02:05;10.40;99.90
30371;DHT22;17164;48.590;11.410;2023-05-14T03:04:31;10.40;99.90
30371;DHT22;17164;48.590;11.410;2023-05-14T03:06:56;10.40;99.90
30371;DHT22;17164;48.590;11.410;2023-05-14T03:09:22;10.40;99.90
30371;DHT22;17164;48.590;11.410;2023-05-14T03:11:49;10.40;99.90
30371;DHT22;17164;48.590;11.410;2023-05-14T03:14:14;10.40;99.90
30371;DHT22;17164;48.590;11.410;2023-05-14T03:16:40;10.40;99.90
30371;DHT22;17164;48.590;11.410;2023-05-14T03:19:06;10.40;99.90
30371;DHT22;17164;48.590;11.410;2023-05-14T03:21:32;10.40;99.90
30371;DHT22;17164;48.590;11.410;2023-05-14T03:23:58;10.30;99.90
30371;DHT22;17164;48.590;11.410;2023-05-14T03:26:23;10.30;99.90
30371;DHT22;17164;48.590;11.410;2023-05-14T03:28:49;10.30;99.90
30371;DHT22;17164;48.590;11.410;2023-05-14T03:31:15;10.30;99.90
30371;DHT22;17164;48.590;11.410;2023-05-14T03:33:41;10.30;99.90
30371;DHT22;17164;48.590;11.410;2023-05-14T03:36:06;10.40;99.90
30371;DHT22;17164;48.590;11.410;2023-05-14T03:38:32;10.30;99.90
30371;DHT22;17164;48.590;11.410;2023-05-14T03:40:58;10.30;99.90
30371;DHT22;17164;48.590;11.410;2023-05-14T03:43:23;10.30;99.90
30371;DHT22;17164;48.590;11.410;2023-05-14T03:45:49;10.30;99.90
30371;DHT22;17164;48.590;11.410;2023-05-14T03:48:17;10.30;99.90
30371;DHT22;17164;48.590;11.410;2023-05-14T03:50:43;10.30;99.90
30371;DHT22;17164;48.590;11.410;2023-05-14T03:53:09;10.30;99.90
30371;DHT22;17164;48.590;11.410;2023-05-14T03:55:34;10.30;99.90
30371;DHT22;17164;48.590;11.410;2023-05-14T03:58:01;10.30;99.90
30371;DHT22;17164;48.590;11.410;2023-05-14T04:00:27;10.30;99.90
30371;DHT22;17164;48.590;11.410;2023-05-14T04:02:53;10.40;99.90
30371;DHT22;17164;48.590;11.410;2023-05-14T04:05:19;10.40;99.90
30371;DHT22;17164;48.590;11.410;2023-05-14T04:07:45;10.40;99.90
30371;DHT22;17164;48.590;11.410;2023-05-14T04:10:11;10.40;99.90
30371;DHT22;17164;48.590;11.410;2023-05-14T04:12:37;10.40;99.90
30371;DHT22;17164;48.590;11.410;2023-05-14T04:15:03;10.40;99.90
30371;DHT22;17164;48.590;11.410;2023-05-14T04:17:29;10.50;99.90
30371;DHT22;17164;48.590;11.410;2023-05-14T04:19:55;10.50;99.90
30371;DHT22;17164;48.590;11.410;2023-05-14T04:22:20;10.50;99.90
30371;DHT22;17164;48.590;11.410;2023-05-14T04:24:46;10.60;99.90
30371;DHT22;17164;48.590;11.410;2023-05-14T04:27:18;10.60;99.90
30371;DHT22;17164;48.590;11.410;2023-05-14T04:29:45;10.70;99.90
30371;DHT22;17164;48.590;11.410;2023-05-14T04:32:11;10.70;99.90
30371;DHT22;17164;48.590;11.410;2023-05-14T04:34:37;10.80;99.90
30371;DHT22;17164;48.590;11.410;2023-05-14T04:37:02;10.80;99.90
30371;DHT22;17164;48.590;11.410;2023-05-14T04:39:28;10.80;99.90
30371;DHT22;17164;48.590;11.410;2023-05-14T04:41:54;10.90;99.90
30371;DHT22;17164;48.590;11.410;2023-05-14T04:44:20;10.90;99.90
30371;DHT22;17164;48.590;11.410;2023-05-14T04:46:45;10.90;99.90
30371;DHT22;17164;48.590;11.410;2023-05-14T04:49:11;11.00;99.90
30371;DHT22;17164;48.590;11.410;2023-05-14T04:51:37;11.00;99.90
30371;DHT22;17164;48.590;11.410;2023-05-14T04:54:02;11.10;99.90
30371;DHT22;17164;48.590;11.410;2023-05-14T04:56:28;11.10;99.90
30371;DHT22;17164;48.590;11.410;2023-05-14T04:58:54;11.20;99.90
30371;DHT22;17164;48.590;11.410;2023-05-14T05:01:19;11.20;99.90
30371;DHT22;17164;48.590;11.410;2023-05-14T05:03:46;11.20;99.90
30371;DHT22;17164;48.590;11.410;2023-05-14T05:06:12;11.20;99.90
30371;DHT22;17164;48.590;11.410;2023-05-14T05:08:37;11.20;99.90
30371;DHT22;17164;48.590;11.410;2023-05-14T05:11:03;11.20;99.90
30371;DHT22;17164;48.590;11.410;2023-05-14T05:13:29;11.20;99.90
30371;DHT22;17164;48.590;11.410;2023-05-14T05:15:56;11.20;99.90
30371;DHT22;17164;48.590;11.410;2023-05-14T05:18:22;11.20;99.90
30371;DHT22;17164;48.590;11.410;2023-05-14T05:20:47;11.30;99.90
30371;DHT22;17164;48.590;11.410;2023-05-14T05:23:13;11.30;99.90
30371;DHT22;17164;48.590;11.410;2023-05-14T05:25:38;11.30;99.90
30371;DHT22;17164;48.590;11.410;2023-05-14T05:28:04;11.30;99.90
30371;DHT22;17164;48.590;11.410;2023-05-14T05:30:30;11.30;99.90
30371;DHT22;17164;48.590;11.410;2023-05-14T05:32:55;11.30;99.90
30371;DHT22;17164;48.590;11.410;2023-05-14T05:35:21;11.40;99.90
30371;DHT22;17164;48.590;11.410;2023-05-14T05:37:47;11.40;99.90
30371;DHT22;17164;48.590;11.410;2023-05-14T05:40:13;11.50;99.90
30371;DHT22;17164;48.590;11.410;2023-05-14T05:42:39;11.60;99.90
30371;DHT22;17164;48.590;11.410;2023-05-14T05:45:05;11.60;99.90
30371;DHT22;17164;48.590;11.410;2023-05-14T05:47:31;11.70;99.90
30371;DHT22;17164;48.590;11.410;2023-05-14T05:49:57;11.70;99.90
30371;DHT22;17164;48.590;11.410;2023-05-14T05:52:22;11.80;99.90
30371;DHT22;17164;48.590;11.410;2023-05-14T05:54:48;11.80;99.90
30371;DHT22;17164;48.590;11.410;2023-05-14T05:57:14;11.90;99.90
30371;DHT22;17164;48.590;11.410;2023-05-14T05:59:39;11.90;99.90
30371;DHT22;17164;48.590;11.410;2023-05-14T06:02:05;12.00;99.90
30371;DHT22;17164;48.590;11.410;2023-05-14T06:04:31;12.10;99.90
30371;DHT22;17164;48.590;11.410;2023-05-14T06:06:56;12.10;99.90
30371;DHT22;17164;48.590;11.410;2023-05-14T06:09:22;12.20;99.90
30371;DHT22;17164;48.590;11.410;2023-05-14T06:11:48;12.20;99.90
30371;DHT22;17164;48.590;11.410;2023-05-14T06:14:13;12.20;99.90
30371;DHT22;17164;48.590;11.410;2023-05-14T06:16:39;12.30;99.90
30371;DHT22;17164;48.590;11.410;2023-05-14T06:19:04;12.40;99.90
30371;DHT22;17164;48.590;11.410;2023-05-14T06:21:30;12.40;99.90
30371;DHT22;17164;48.590;11.410;2023-05-14T06:23:56;12.40;99.90
30371;DHT22;17164;48.590;11.410;2023-05-14T06:26:22;12.50;99.90
30371;DHT22;17164;48.590;11.410;2023-05-14T06:28:47;12.50;99.90
30371;DHT22;17164;48.590;11.410;2023-05-14T06:31:13;12.60;99.90
30371;DHT22;17164;48.590;11.410;2023-05-14T06:33:39;12.60;99.90
30371;DHT22;17164;48.590;11.410;2023-05-14T06:36:05;12.60;99.90
30371;DHT22;17164;48.590;11.410;2023-05-14T06:38:31;12.60;99.90
30371;DHT22;17164;48.590;11.410;2023-05-14T06:40:57;12.60;99.90
30371;DHT22;17164;48.590;11.410;2023-05-14T06:43:23;12.60;99.90
30371;DHT22;17164;48.590;11.410;2023-05-14T06:45:50;12.50;99.90
30371;DHT22;17164;48.590;11.410;2023-05-14T06:48:17;12.50;99.90
30371;DHT22;17164;48.590;11.410;2023-05-14T06:50:43;12.50;99.90
30371;DHT22;17164;48.590;11.410;2023-05-14T06:53:09;12.40;99.90
30371;DHT22;17164;48.590;11.410;2023-05-14T06:55:35;12.40;99.90
30371;DHT22;17164;48.590;11.410;2023-05-14T06:58:00;12.40;99.90
30371;DHT22;17164;48.590;11.410;2023-05-14T07:00:27;12.40;99.90
30371;DHT22;17164;48.590;11.410;2023-05-14T07:02:52;12.40;99.90
30371;DHT22;17164;48.590;11.410;2023-05-14T07:05:18;12.40;99.90
30371;DHT22;17164;48.590;11.410;2023-05-14T07:07:43;12.40;99.90
30371;DHT22;17164;48.590;11.410;2023-05-14T07:10:09;12.40;99.90
30371;DHT22;17164;48.590;11.410;2023-05-14T07:12:35;12.40;99.90
30371;DHT22;17164;48.590;11.410;2023-05-14T07:15:01;12.40;99.90
30371;DHT22;17164;48.590;11.410;2023-05-14T07:17:27;12.50;99.90
30371;DHT22;17164;48.590;11.410;2023-05-14T07:19:52;12.50;99.90
30371;DHT22;17164;48.590;11.410;2023-05-14T07:22:20;12.50;99.90
30371;DHT22;17164;48.590;11.410;2023-05-14T07:24:46;12.60;99.90
30371;DHT22;17164;48.590;11.410;2023-05-14T07:27:11;12.60;99.90
30371;DHT22;17164;48.590;11.410;2023-05-14T07:29:37;12.70;99.90
30371;DHT22;17164;48.590;11.410;2023-05-14T07:32:03;12.70;99.90
30371;DHT22;17164;48.590;11.410;2023-05-14T07:34:29;12.70;99.90
30371;DHT22;17164;48.590;11.410;2023-05-14T07:36:54;12.80;99.90
30371;DHT22;17164;48.590;11.410;2023-05-14T07:39:20;12.80;99.90
30371;DHT22;17164;48.590;11.410;2023-05-14T07:41:46;12.80;99.90
30371;DHT22;17164;48.590;11.410;2023-05-14T07:44:11;12.80;99.90
30371;DHT22;17164;48.590;11.410;2023-05-14T07:46:37;12.90;99.90
30371;DHT22;17164;48.590;11.410;2023-05-14T07:49:03;12.90;99.90
30371;DHT22;17164;48.590;11.410;2023-05-14T07:51:28;12.90;99.90
30371;DHT22;17164;48.590;11.410;2023-05-14T07:53:54;13.00;99.90
30371;DHT22;17164;48.590;11.410;2023-05-14T07:56:23;13.00;99.90
30371;DHT22;17164;48.590;11.410;2023-05-14T07:58:49;13.10;99.90
30371;DHT22;17164;48.590;11.410;2023-05-14T08:01:15;13.20;99.90
30371;DHT22;17164;48.590;11.410;2023-05-14T08:03:41;13.30;99.90
30371;DHT22;17164;48.590;11.410;2023-05-14T08:06:06;13.40;99.90
30371;DHT22;17164;48.590;11.410;2023-05-14T08:08:32;13.60;99.90
30371;DHT22;17164;48.590;11.410;2023-05-14T08:10:58;13.80;99.90
30371;DHT22;17164;48.590;11.410;2023-05-14T08:13:23;14.10;99.90
30371;DHT22;17164;48.590;11.410;2023-05-14T08:15:49;14.30;99.90
30371;DHT22;17164;48.590;11.410;2023-05-14T08:18:14;14.60;99.90
30371;DHT22;17164;48.590;11.410;2023-05-14T08:20:40;14.60;99.90
30371;DHT22;17164;48.590;11.410;2023-05-14T08:23:06;14.70;99.90
30371;DHT22;17164;48.590;11.410;2023-05-14T08:25:32;14.80;99.90
30371;DHT22;17164;48.590;11.410;2023-05-14T08:27:58;14.80;99.90
30371;DHT22;17164;48.590;11.410;2023-05-14T08:30:24;14.80;99.90
30371;DHT22;17164;48.590;11.410;2023-05-14T08:32:50;14.70;99.90
30371;DHT22;17164;48.590;11.410;2023-05-14T08:35:16;14.70;99.90
30371;DHT22;17164;48.590;11.410;2023-05-14T08:37:42;14.60;99.90
30371;DHT22;17164;48.590;11.410;2023-05-14T08:40:08;14.50;99.90
30371;DHT22;17164;48.590;11.410;2023-05-14T08:42:35;14.50;99.90
30371;DHT22;17164;48.590;11.410;2023-05-14T08:45:03;14.50;99.90
30371;DHT22;17164;48.590;11.410;2023-05-14T08:47:30;14.60;99.90
30371;DHT22;17164;48.590;11.410;2023-05-14T08:50:06;14.60;99.90
30371;DHT22;17164;48.590;11.410;2023-05-14T08:52:33;14.70;99.90
30371;DHT22;17164;48.590;11.410;2023-05-14T08:55:01;14.80;99.90
30371;DHT22;17164;48.590;11.410;2023-05-14T08:57:27;14.90;99.90
30371;DHT22;17164;48.590;11.410;2023-05-14T08:59:54;15.00;99.90
30371;DHT22;17164;48.590;11.410;2023-05-14T09:02:23;15.00;99.90
30371;DHT22;17164;48.590;11.410;2023-05-14T09:04:55;14.90;99.90
30371;DHT22;17164;48.590;11.410;2023-05-14T09:07:22;14.90;99.90
30371;DHT22;17164;48.590;11.410;2023-05-14T09:09:48;14.90;99.90
30371;DHT22;17164;48.590;11.410;2023-05-14T09:12:14;14.90;99.90
30371;DHT22;17164;48.590;11.410;2023-05-14T09:14:39;14.90;99.90
30371;DHT22;17164;48.590;11.410;2023-05-14T09:17:05;15.00;99.90
30371;DHT22;17164;48.590;11.410;2023-05-14T09:19:32;15.00;99.90
30371;DHT22;17164;48.590;11.410;2023-05-14T09:21:58;15.10;99.90
30371;DHT22;17164;48.590;11.410;2023-05-14T09:24:26;15.10;99.90
30371;DHT22;17164;48.590;11.410;2023-05-14T09:26:55;15.30;99.90
30371;DHT22;17164;48.590;11.410;2023-05-14T09:29:23;15.40;99.90
30371;DHT22;17164;48.590;11.410;2023-05-14T09:31:51;15.50;99.90
30371;DHT22;17164;48.590;11.410;2023-05-14T09:34:31;15.60;99.90
30371;DHT22;17164;48.590;11.410;2023-05-14T09:37:01;15.60;99.90
30371;DHT22;17164;48.590;11.410;2023-05-14T09:39:28;15.70;99.90
30371;DHT22;17164;48.590;11.410;2023-05-14T09:41:54;15.70;99.90
30371;DHT22;17164;48.590;11.410;2023-05-14T09:44:21;15.70;99.90
30371;DHT22;17164;48.590;11.410;2023-05-14T09:46:47;15.70;99.90
30371;DHT22;17164;48.590;11.410;2023-05-14T09:49:13;15.60;99.90
30371;DHT22;17164;48.590;11.410;2023-05-14T09:51:39;15.50;99.90
30371;DHT22;17164;48.590;11.410;2023-05-14T09:54:06;15.30;99.90
30371;DHT22;17164;48.590;11.410;2023-05-14T09:56:32;15.40;99.90
30371;DHT22;17164;48.590;11.410;2023-05-14T09:58:58;15.40;99.90
30371;DHT22;17164;48.590;11.410;2023-05-14T10:01:24;15.50;99.90
30371;DHT22;17164;48.590;11.410;2023-05-14T10:03:50;15.60;99.90
30371;DHT22;17164;48.590;11.410;2023-05-14T10:06:18;15.60;99.90
30371;DHT22;17164;48.590;11.410;2023-05-14T10:08:47;15.70;99.90
30371;DHT22;17164;48.590;11.410;2023-05-14T10:11:24;15.90;99.90
30371;DHT22;17164;48.590;11.410;2023-05-14T10:14:01;15.90;99.90
30371;DHT22;17164;48.590;11.410;2023-05-14T10:16:33;16.00;99.90
30371;DHT22;17164;48.590;11.410;2023-05-14T10:19:10;16.10;99.90
30371;DHT22;17164;48.590;11.410;2023-05-14T10:21:37;16.10;99.90
30371;DHT22;17164;48.590;11.410;2023-05-14T10:24:05;16.10;99.90
30371;DHT22;17164;48.590;11.410;2023-05-14T10:26:38;16.20;99.90
30371;DHT22;17164;48.590;11.410;2023-05-14T10:29:05;16.20;99.90
30371;DHT22;17164;48.590;11.410;2023-05-14T10:37:02;16.60;99.90
30371;DHT22;17164;48.590;11.410;2023-05-14T10:39:57;16.70;99.90
30371;DHT22;17164;48.590;11.410;2023-05-14T10:42:27;16.80;99.90
30371;DHT22;17164;48.590;11.410;2023-05-14T10:44:54;16.80;99.90
30371;DHT22;17164;48.590;11.410;2023-05-14T10:47:22;16.90;99.90
30371;DHT22;17164;48.590;11.410;2023-05-14T10:49:48;17.00;99.90
30371;DHT22;17164;48.590;11.410;2023-05-14T10:52:17;17.20;99.90
30371;DHT22;17164;48.590;11.410;2023-05-14T10:54:50;17.60;99.90
30371;DHT22;17164;48.590;11.410;2023-05-14T10:57:21;18.00;99.90
30371;DHT22;17164;48.590;11.410;2023-05-14T10:59:48;18.30;99.90
30371;DHT22;17164;48.590;11.410;2023-05-14T11:02:26;18.40;99.90
30371;DHT22;17164;48.590;11.410;2023-05-14T11:05:00;18.60;99.90
30371;DHT22;17164;48.590;11.410;2023-05-14T11:07:37;18.60;99.90
30371;DHT22;17164;48.590;11.410;2023-05-14T11:10:09;18.60;99.90
30371;DHT22;17164;48.590;11.410;2023-05-14T11:12:39;18.50;99.90
30371;DHT22;17164;48.590;11.410;2023-05-14T11:15:13;18.40;99.90
30371;DHT22;17164;48.590;11.410;2023-05-14T11:17:41;18.20;99.90
30371;DHT22;17164;48.590;11.410;2023-05-14T11:20:08;18.00;99.90
30371;DHT22;17164;48.590;11.410;2023-05-14T11:22:35;17.90;99.90
30371;DHT22;17164;48.590;11.410;2023-05-14T11:25:01;17.70;99.90
30371;DHT22;17164;48.590;11.410;2023-05-14T11:27:27;17.60;99.90
30371;DHT22;17164;48.590;11.410;2023-05-14T11:29:53;17.50;99.90
30371;DHT22;17164;48.590;11.410;2023-05-14T11:32:20;17.50;99.90
30371;DHT22;17164;48.590;11.410;2023-05-14T11:34:46;17.50;99.90
30371;DHT22;17164;48.590;11.410;2023-05-14T11:37:13;17.50;99.90
30371;DHT22;17164;48.590;11.410;2023-05-14T11:39:49;17.50;99.90
30371;DHT22;17164;48.590;11.410;2023-05-14T11:42:15;17.50;99.90
30371;DHT22;17164;48.590;11.410;2023-05-14T11:44:43;17.40;99.90
30371;DHT22;17164;48.590;11.410;2023-05-14T11:47:10;17.40;99.90
30371;DHT22;17164;48.590;11.410;2023-05-14T11:49:35;17.40;99.90
30371;DHT22;17164;48.590;11.410;2023-05-14T11:52:04;17.40;99.90
30371;DHT22;17164;48.590;11.410;2023-05-14T11:54:31;17.50;99.90
30371;DHT22;17164;48.590;11.410;2023-05-14T11:56:58;17.60;99.90
30371;DHT22;17164;48.590;11.410;2023-05-14T11:59:27;17.70;99.90
30371;DHT22;17164;48.590;11.410;2023-05-14T12:01:57;17.80;99.90
30371;DHT22;17164;48.590;11.410;2023-05-14T12:04:23;17.90;99.90
30371;DHT22;17164;48.590;11.410;2023-05-14T12:06:49;18.10;99.90
30371;DHT22;17164;48.590;11.410;2023-05-14T12:09:21;18.50;99.90
30371;DHT22;17164;48.590;11.410;2023-05-14T12:11:48;18.90;99.90
30371;DHT22;17164;48.590;11.410;2023-05-14T12:14:21;19.20;99.90
30371;DHT22;17164;48.590;11.410;2023-05-14T12:16:48;19.30;99.90
30371;DHT22;17164;48.590;11.410;2023-05-14T12:19:16;19.30;99.90
30371;DHT22;17164;48.590;11.410;2023-05-14T12:21:43;19.30;99.90
30371;DHT22;17164;48.590;11.410;2023-05-14T12:24:14;19.30;99.90
30371;DHT22;17164;48.590;11.410;2023-05-14T12:26:44;19.50;99.90
30371;DHT22;17164;48.590;11.410;2023-05-14T12:29:12;19.80;99.90
30371;DHT22;17164;48.590;11.410;2023-05-14T12:31:49;20.00;99.90
30371;DHT22;17164;48.590;11.410;2023-05-14T12:34:15;20.20;99.90
30371;DHT22;17164;48.590;11.410;2023-05-14T12:36:42;20.30;99.90
30371;DHT22;17164;48.590;11.410;2023-05-14T12:39:08;20.50;99.90
30371;DHT22;17164;48.590;11.410;2023-05-14T12:41:34;20.30;97.50
30371;DHT22;17164;48.590;11.410;2023-05-14T12:44:02;20.00;97.90
30371;DHT22;17164;48.590;11.410;2023-05-14T12:46:28;19.80;98.70
30371;DHT22;17164;48.590;11.410;2023-05-14T12:48:54;19.40;99.90
30371;DHT22;17164;48.590;11.410;2023-05-14T12:51:20;19.10;99.90
30371;DHT22;17164;48.590;11.410;2023-05-14T12:53:46;18.90;99.90
30371;DHT22;17164;48.590;11.410;2023-05-14T12:56:12;19.00;99.90
30371;DHT22;17164;48.590;11.410;2023-05-14T12:58:38;19.10;99.90
30371;DHT22;17164;48.590;11.410;2023-05-14T13:01:04;19.40;99.90
30371;DHT22;17164;48.590;11.410;2023-05-14T13:03:29;19.60;99.90
30371;DHT22;17164;48.590;11.410;2023-05-14T13:05:55;19.80;99.90
30371;DHT22;17164;48.590;11.410;2023-05-14T13:08:21;19.80;99.90
30371;DHT22;17164;48.590;11.410;2023-05-14T13:10:50;19.80;99.90
30371;DHT22;17164;48.590;11.410;2023-05-14T13:13:15;19.80;99.90
30371;DHT22;17164;48.590;11.410;2023-05-14T13:15:41;19.80;99.90
30371;DHT22;17164;48.590;11.410;2023-05-14T13:18:07;19.90;99.90
30371;DHT22;17164;48.590;11.410;2023-05-14T13:20:33;19.70;99.20
30371;DHT22;17164;48.590;11.410;2023-05-14T13:22:59;19.50;99.90
30371;DHT22;17164;48.590;11.410;2023-05-14T13:25:25;19.20;99.90
30371;DHT22;17164;48.590;11.410;2023-05-14T13:27:50;18.90;99.90
30371;DHT22;17164;48.590;11.410;2023-05-14T13:30:19;18.90;99.90
30371;DHT22;17164;48.590;11.410;2023-05-14T13:32:45;19.00;99.90
30371;DHT22;17164;48.590;11.410;2023-05-14T13:35:11;19.10;99.90
30371;DHT22;17164;48.590;11.410;2023-05-14T13:37:37;19.30;99.90
30371;DHT22;17164;48.590;11.410;2023-05-14T13:40:03;19.30;99.90
30371;DHT22;17164;48.590;11.410;2023-05-14T13:42:29;19.50;99.90
30371;DHT22;17164;48.590;11.410;2023-05-14T13:44:57;19.50;99.40
30371;DHT22;17164;48.590;11.410;2023-05-14T13:47:23;19.50;99.90
30371;DHT22;17164;48.590;11.410;2023-05-14T13:49:50;19.50;99.90
30371;DHT22;17164;48.590;11.410;2023-05-14T13:52:16;19.70;99.90
30371;DHT22;17164;48.590;11.410;2023-05-14T13:54:41;20.10;99.90
30371;DHT22;17164;48.590;11.410;2023-05-14T13:57:07;20.40;98.40
30371;DHT22;17164;48.590;11.410;2023-05-14T13:59:32;20.50;98.60
30371;DHT22;17164;48.590;11.410;2023-05-14T14:01:58;20.40;97.50
30371;DHT22;17164;48.590;11.410;2023-05-14T14:04:23;20.20;96.70
30371;DHT22;17164;48.590;11.410;2023-05-14T14:06:53;20.00;99.10
30371;DHT22;17164;48.590;11.410;2023-05-14T14:09:19;19.90;99.90
30371;DHT22;17164;48.590;11.410;2023-05-14T14:11:45;19.70;99.90
30371;DHT22;17164;48.590;11.410;2023-05-14T14:14:10;19.50;99.90
30371;DHT22;17164;48.590;11.410;2023-05-14T14:16:36;19.30;99.90
30371;DHT22;17164;48.590;11.410;2023-05-14T14:19:02;19.10;99.90
30371;DHT22;17164;48.590;11.410;2023-05-14T14:21:27;18.90;99.90
30371;DHT22;17164;48.590;11.410;2023-05-14T14:23:53;18.80;99.90
30371;DHT22;17164;48.590;11.410;2023-05-14T14:26:18;18.80;99.90
30371;DHT22;17164;48.590;11.410;2023-05-14T14:28:44;18.90;99.90
30371;DHT22;17164;48.590;11.410;2023-05-14T14:31:10;19.10;99.90
30371;DHT22;17164;48.590;11.410;2023-05-14T14:33:35;19.40;99.90
30371;DHT22;17164;48.590;11.410;2023-05-14T14:36:01;19.70;99.90
30371;DHT22;17164;48.590;11.410;2023-05-14T14:38:27;19.80;99.90
30371;DHT22;17164;48.590;11.410;2023-05-14T14:40:52;20.00;99.90
30371;DHT22;17164;48.590;11.410;2023-05-14T14:43:18;20.10;99.90
30371;DHT22;17164;48.590;11.410;2023-05-14T14:45:44;20.30;99.10
30371;DHT22;17164;48.590;11.410;2023-05-14T14:50:50;20.80;96.20
30371;DHT22;17164;48.590;11.410;2023-05-14T14:53:18;20.60;95.90
30371;DHT22;17164;48.590;11.410;2023-05-14T14:55:43;20.20;96.80
30371;DHT22;17164;48.590;11.410;2023-05-14T14:58:09;19.70;96.70
30371;DHT22;17164;48.590;11.410;2023-05-14T15:00:34;19.50;97.10
30371;DHT22;17164;48.590;11.410;2023-05-14T15:03:00;19.40;99.10
30371;DHT22;17164;48.590;11.410;2023-05-14T15:05:26;19.30;99.90
30371;DHT22;17164;48.590;11.410;2023-05-14T15:07:51;19.00;99.90
30371;DHT22;17164;48.590;11.410;2023-05-14T15:10:17;18.60;99.90
30371;DHT22;17164;48.590;11.410;2023-05-14T15:12:42;18.00;99.90
30371;DHT22;17164;48.590;11.410;2023-05-14T15:15:08;17.30;99.90
30371;DHT22;17164;48.590;11.410;2023-05-14T15:17:34;16.70;99.90
30371;DHT22;17164;48.590;11.410;2023-05-14T15:20:00;16.20;99.90
30371;DHT22;17164;48.590;11.410;2023-05-14T15:22:25;15.80;99.90
30371;DHT22;17164;48.590;11.410;2023-05-14T15:24:51;15.50;99.90
30371;DHT22;17164;48.590;11.410;2023-05-14T15:27:16;15.30;99.90